Aeroporto :
LOGIN :

Iscrizione | Disclaimer

   EN    FR    IT 

 










Sommario :    VFR   VFR Marginale   IFR   IFR Intensivo   IFR Molto Intensivo
Visibilità : 
Base nubi : 
>= 8 km
>= 3000ft
5 / 8 km
1000 / 3000 ft
1500m / 5 km
500 / 1000 ft
800 / 1500m
200 / 500 ft
< 800m
< 200 ft
Simboli :   Temporali  Nebbia  Neve Forte  Precipitazioni Forti  Vento > 20 kt
SIGMETs :   Varie  Temporali  Ghiacco  Turbolenza  Onda orograficha  Ceneri Vulcaniche






- Altitudine del aeroporto : 341 ft


EPMO - Modlin

ULTIMO METAR :
  • 032000Z 13009KT CAVOK 00/M03 Q1010

METARs OBSOLETI :
  • 031930Z 13010KT 100V160 CAVOK 00/M03 Q1010
  • 031900Z 13010KT 9000 NSC 00/M03 Q1010
  • 031830Z 12011KT 090V160 9000 NSC 00/M03 Q1010
  • 031800Z 13012KT 9000 NSC 00/M03 Q1010
  • 031730Z 13012KT CAVOK 00/M03 Q1011

TAF TAF EPMO
Valido dal 03 a 18 ore il 04 a 18 ore UTC


031730Z 0318/0418 13015KT 9999 SCT016
TEMPO 0318/0401 4500 -SNRA BR BKN012
PROB40
TEMPO 0318/0323 FZRA
TEMPO 0402/0418 13017G27KT



MetMap, La meteo Aeronautica in un colpo d'occhio ! - Copyright ORBIFLY Dicembre 2007 - Disclaimer

ORBIFLY MET'MAP TEAM :

Programmazione e sviluppo : Alexandra Zaïnal
Concezione : Baudouin d'Aumeries
Aiuto per la programmazione : Marc-Olivier Méhu
Supporto tecnico e logistico : Manuel Goepfert
Aiuto per la traduzione : Arnaldo La Scala

Contatto : metmap@orbifly.com




FONTI E CREDITI :

   NOAA